METAR stanice u blizini

 

LYBE - Beograd / Surčin, Srbija
Ažurirano: 18/06/2019 04:30
Vedro
Vedro
 Pravac vetra JJZ
Vetar: JJZ 7 km/h
Temperatura: 20°C
Tačka rose: 18°C
Vlažnost: 88%
Pritisak: 1016 hPa
Pregled: Vedro
Vidljivost: greater than 10 km
2019/06/18 02:30 LYBE 180230Z 21004KT CAVOK 20/18 Q1016 NOSIG
LYBT - Beograd / Batajnica, Srbija
Ažurirano: 18/06/2019 04:30
Mist, Delimično oblačno
Mist, Delimično oblačno
 Pravac vetra calm
Vetar: Tišina
Temperatura: 18°C
Tačka rose: 18°C
Vlažnost: 100%
Pritisak: 1015 hPa
Pregled: Mist
Oblaci: Partly Cloudy
Vidljivost: 5 km
2019/06/18 02:30 LYBT 180230Z 00000KT 5000 BR NSC 18/18 Q1015 NOSIG
LYVR - Vršac, Srbija
Ažurirano: 18/06/2019 04:30
Shallow fog, Mist, Delimično oblačno
Shallow fog, Mist, Delimično oblačno
 Pravac vetra Z
Vetar: Z 4 km/h
Temperatura: 16°C
Tačka rose: 16°C
Vlažnost: 100%
Pritisak: 1015 hPa
Pregled: Shallow fog, Mist
Oblaci: Partly Cloudy
Vidljivost: 2 km
2019/06/18 02:30 LYVR 180230Z 26002KT 2000 R19/0225D R01/1900U MIFG BR NSC 16/16 Q1015 TEMPO 0800 FG
 
LYKV - Lađevci, Srbija
Ažurirano: 18/06/2019 04:30
Partly Cloudy
Partly Cloudy
 Pravac vetra calm
Vetar: Tišina
Temperatura: 18°C
Tačka rose: 17°C
Vlažnost: 94%
Pritisak: 1016 hPa
Oblaci: Partly Cloudy
Vidljivost: 10 km
Cloud details: Partly Cloudy 914 m
2019/06/18 02:30 LYKV 180230Z 00000KT 9999 SCT030 18/17 Q1016 NOSIG
LYNI - Niš, Srbija
Ažurirano: 18/06/2019 04:30
Vedro
Vedro
 Pravac vetra I
Vetar: I 6 km/h
Temperatura: 18°C
Tačka rose: 16°C
Vlažnost: 88%
Pritisak: 1016 hPa
Pregled: Vedro
Vidljivost: greater than 10 km
2019/06/18 02:30 LYNI 180230Z 09003KT CAVOK 18/16 Q1016 NOSIG
BKPR - Priština, Srbija
Ažurirano: 18/06/2019 04:30
Mostly Cloudy
Mostly Cloudy
 Pravac vetra varies
Vetar: varies 4 km/h
Temperatura: 17°C
Tačka rose: 14°C
Vlažnost: 83%
Pritisak: 1017 hPa
Oblaci: Mostly Cloudy
Vidljivost: 10 km
Cloud details: Mostly Cloudy 2743 m
2019/06/18 02:30 BKPR 180230Z VRB02KT 9999 BKN090 17/14 Q1017 NOSIG
 
LHPP - Pecs / Pogany, Hungary
Ažurirano: 17/06/2019 19:45
NOT Current
Slaba kiša, Delimično oblačno
Slaba kiša, Delimično oblačno
 Pravac vetra SZ
Vetar: SZ 15 km/h
Temperatura: 19°C
Tačka rose: 18°C
Vlažnost: 94%
Pritisak: 1017 hPa
Pregled: Light Rain
Oblaci: Partly Cloudy
Vidljivost: 10 km
Cloud details: Partly Cloudy 1006 m
Partly Cloudy 2530 m
2019/06/17 17:45 LHPP 171745Z 31008KT 9999 -RA SCT033CB SCT083 19/18 Q1017 RETS
LHUD - Szeged, Hungary
Ažurirano: 18/06/2019 01:45
NOT Current
Mostly Cloudy
Mostly Cloudy
 Pravac vetra SSI
Vetar: SSI 17 km/h
Temperatura: 20°C
Tačka rose: 17°C
Vlažnost: 83%
Pritisak: 1017 hPa
Oblaci: Mostly Cloudy
Vidljivost: 10 km
Cloud details: Few Clouds 1219 m
Mostly Cloudy 6096 m
2019/06/17 23:45 LHUD 172345Z 02009KT 9999 FEW040 BKN200 20/17 Q1017
LRTR - Timisoara, Romania
Ažurirano: 18/06/2019 04:30
Vedro
Vedro
 Pravac vetra I
Vetar: I 9 km/h
Temperatura: 16°C
Tačka rose: 16°C
Vlažnost: 100%
Pritisak: 1015 hPa
Pregled: Vedro
Vidljivost: greater than 10 km
2019/06/18 02:30 LRTR 180230Z 09005KT CAVOK 16/16 Q1015 R11/190095
 
LRCV - Craiova, Romania
Ažurirano: 18/06/2019 04:30
Slaba kiša, Showers, Pretežno oblačno
Slaba kiša, Showers, Pretežno oblačno
 Pravac vetra SSI
Vetar: SSI 19 km/h
Temperatura: 19°C
Tačka rose: 17°C
Vlažnost: 88%
Pritisak: 1015 hPa
Pregled: Slaba kiša, Showers
Oblaci: Mostly Cloudy
Vidljivost: 10 km
Cloud details: Mostly Cloudy 2743 m
2019/06/18 02:30 LRCV 180230Z AUTO 03010KT 9999 -SHRA BKN090/// 19/17 Q1015
LBSF - Sofia, Bulgaria
Ažurirano: 18/06/2019 04:30
Few Clouds
Few Clouds
 Pravac vetra SZ
Vetar: SZ 6 km/h
Temperatura: 16°C
Tačka rose: 15°C
Vlažnost: 94%
Pritisak: 1017 hPa
Oblaci: Few Clouds
Vidljivost: 9 km
Cloud details: Few Clouds 305 m
2019/06/18 02:30 LBSF 180230Z 31003KT 9000 FEW010 16/15 Q1017 TEMPO 5000 BR SCT020
LWSK - Skoplje, Makedonija
Ažurirano: 18/06/2019 03:30
Vedro
Vedro
 Pravac vetra calm
Vetar: Tišina
Temperatura: 16°C
Tačka rose: 16°C
Vlažnost: 100%
Pritisak: 1016 hPa
Pregled: Vedro
Vidljivost: greater than 10 km
2019/06/18 01:30 LWSK 180130Z 00000KT CAVOK 16/16 Q1016 NOSIG
 
LYPG - Podgorica, Crna Gora
Ažurirano: 18/06/2019 04:30
Mostly Cloudy
Mostly Cloudy
 Pravac vetra Z
Vetar: Z 6 km/h
Temperatura: 23°C
Tačka rose: 13°C
Vlažnost: 53%
Pritisak: 1013 hPa
Oblaci: Mostly Cloudy
Vidljivost: 10 km
Cloud details: Mostly Cloudy 3048 m
2019/06/18 02:30 LYPG 180230Z 28003KT 9999 BKN100 23/13 Q1013 NOSIG
LQSA - Sarajevo, Bosna i Hercegovina
Ažurirano: 18/06/2019 04:00
Vedro
Vedro
 Pravac vetra varies
Vetar: varies 4 km/h
Temperatura: 15°C
Tačka rose: 15°C
Vlažnost: 100%
Pritisak: 1017 hPa
Pregled: Vedro
Vidljivost: greater than 10 km
2019/06/18 02:00 LQSA 180200Z VRB02KT CAVOK 15/15 Q1017
LDOS - Osijek, Hrvatksa
Ažurirano: 18/06/2019 04:30
Vedro
Vedro
 Pravac vetra SZ
Vetar: SZ 9 km/h
Temperatura: 17°C
Tačka rose: 16°C
Vlažnost: 94%
Pritisak: 1016 hPa
Pregled: Vedro
Vidljivost: greater than 10 km
2019/06/18 02:30 LDOS 180230Z 32005KT CAVOK 17/16 Q1016